aviador You're here:

KSFF Decoded Metar

SPOKANE in WA, USA
Report Time2018-02-22 05:53:00
UTC Time2018-02-22 06:52:07
Flight Rules vfr VFR
WindCalm
Visibility9999 m
Phenomena:N/A
Clouds:Overcast 080 Hf
Expected CloudBase > 1,600 ft AGL from Temp-Dew spread
Ceiling8,000 ft
Temp-7°C (ISA -18)
Dew Point-11°C (73% RH)
AAT-10.1°C
QNH1021 hPa
Density Alt-459 ft
Elevation1,998 ft
Report Wrong Elevation
Raw Report
KSFF 220553Z AUTO 00000KT 10SM OVC080 M07/M11 A3014 RMK AO2 SLP238
T10671106 11044 21067 53000=

Extra information for KSFF:More info

Metar Taf Metar & Taf Last 4 Metars F.Rules Stats Wind Profile Meteogram Temp Stats Airport Information Weather charts Add Link Nearby VenuesMetar ALERT Operation Metar Decoded Social comments

AIRNAV info for KSFF